Time;durP1;ratioP1;P1;durP2;ratioP2;P2;SDS_P1;SDS_P2;PMS_P1;PMS_P2;Temp;Humidity;BMP_temperature;BMP_pressure;BME280_temperature;BME280_humidity;BME280_pressure;Samples;Min_cycle;Max_cycle;Signal;HPM_P1;HPM_P2
2023/04/12 00:01:22;;;;;;;0.20;0.20;;;;;;;11.44;93.87;100025.38;5098646;28;20040;-62
2023/04/12 00:03:52;;;;;;;0.20;0.20;;;;;;;11.51;93.92;100028.31;5098316;28;20488;-64
2023/04/12 00:06:19;;;;;;;0.20;0.20;;;;;;;11.34;93.46;100024.03;5098588;28;20027;-63
2023/04/12 00:08:49;;;;;;;0.20;0.20;;;;;;;11.27;95.61;100024.72;5097908;28;20032;-63
2023/04/12 00:11:17;;;;;;;0.30;0.30;;;;;;;11.18;96.60;100020.56;5098524;28;20162;-63
2023/04/12 00:13:45;;;;;;;0.20;0.20;;;;;;;11.21;97.30;100026.19;5098169;28;20542;-63
2023/04/12 00:16:14;;;;;;;0.20;0.20;;;;;;;11.26;96.78;100016.72;5098110;28;20114;-62
2023/04/12 00:18:44;;;;;;;0.20;0.20;;;;;;;11.26;96.80;100005.59;5116888;28;20030;-62
2023/04/12 00:21:10;;;;;;;0.20;0.20;;;;;;;11.24;96.82;100007.97;5097940;28;20023;-63
2023/04/12 00:23:38;;;;;;;0.20;0.20;;;;;;;11.23;96.81;99996.00;5099558;28;20028;-64
2023/04/12 00:26:07;;;;;;;0.20;0.20;;;;;;;11.27;96.82;99998.84;5099848;28;20059;-63
2023/04/12 00:28:35;;;;;;;0.20;0.20;;;;;;;11.33;96.48;100002.91;5099690;28;20028;-62
2023/04/12 00:31:04;;;;;;;0.20;0.20;;;;;;;11.36;96.98;99999.41;5097828;28;20026;-63
2023/04/12 00:33:32;;;;;;;0.20;0.20;;;;;;;11.47;96.00;99994.00;5098330;28;20028;-64
2023/04/12 00:35:58;;;;;;;0.20;0.20;;;;;;;11.52;95.74;99996.47;5098012;28;20059;-64
2023/04/12 00:38:23;;;;;;;0.20;0.20;;;;;;;11.58;95.18;99999.75;5097992;28;20453;-63
2023/04/12 00:40:54;;;;;;;0.20;0.20;;;;;;;11.76;93.77;99992.44;5097646;28;20027;-63
2023/04/12 00:43:26;;;;;;;0.20;0.20;;;;;;;11.69;93.94;99989.56;5099012;28;20080;-64
2023/04/12 00:46:00;;;;;;;0.20;0.20;;;;;;;11.70;93.46;99985.59;5098852;28;20053;-63
2023/04/12 00:48:31;;;;;;;0.20;0.20;;;;;;;11.78;93.41;99982.56;5097978;28;20410;-62
2023/04/12 00:50:59;;;;;;;0.20;0.20;;;;;;;11.80;93.53;99982.16;5097421;28;20031;-63
2023/04/12 00:53:28;;;;;;;0.20;0.20;;;;;;;11.75;93.15;99972.13;5097380;28;20031;-64
2023/04/12 00:55:57;;;;;;;0.20;0.20;;;;;;;11.83;92.99;99967.53;5097306;28;20036;-62
2023/04/12 00:58:27;;;;;;;0.20;0.20;;;;;;;11.90;92.22;99973.19;5079883;28;20052;-64
2023/04/12 01:00:53;;;;;;;0.20;0.20;;;;;;;11.82;91.82;99970.66;5073550;28;20082;-63
2023/04/12 01:03:21;;;;;;;0.20;0.20;;;;;;;11.83;92.59;99967.53;5073562;28;20033;-63
2023/04/12 01:06:14;;;;;;;0.20;0.20;;;;;;;11.83;92.07;99973.09;5075039;28;20020;-62
2023/04/12 01:08:56;;;;;;;0.20;0.20;;;;;;;11.75;93.19;99960.19;5073391;28;20033;-64
2023/04/12 01:11:41;;;;;;;0.20;0.20;;;;;;;11.80;93.21;99959.88;5073648;28;20039;-62
2023/04/12 01:14:15;;;;;;;0.20;0.20;;;;;;;11.91;92.19;99958.06;5073271;28;20029;-65
2023/04/12 01:16:43;;;;;;;0.20;0.20;;;;;;;11.88;92.26;99950.47;5073550;28;20029;-63
2023/04/12 01:19:33;;;;;;;0.20;0.20;;;;;;;11.80;91.83;99941.16;5074949;28;20024;-62
2023/04/12 01:21:59;;;;;;;0.20;0.20;;;;;;;11.80;93.27;99945.94;5073489;28;20032;-62
2023/04/12 01:24:27;;;;;;;0.20;0.20;;;;;;;11.79;92.21;99944.31;5073151;28;20035;-63
2023/04/12 01:26:56;;;;;;;0.20;0.20;;;;;;;11.82;92.57;99943.59;5073674;28;20068;-63
2023/04/12 01:29:27;;;;;;;0.20;0.20;;;;;;;11.83;92.58;99942.44;5074316;28;20425;-63
2023/04/12 01:31:57;;;;;;;0.20;0.20;;;;;;;11.75;92.57;99943.47;5073303;28;20024;-62
2023/04/12 01:34:26;;;;;;;0.20;0.20;;;;;;;11.68;92.96;99940.59;5073499;28;20368;-63
2023/04/12 01:36:53;;;;;;;0.20;0.20;;;;;;;11.64;93.78;99934.94;5072409;28;20032;-63
2023/04/12 01:39:21;;;;;;;0.20;0.20;;;;;;;11.68;94.28;99932.22;5073394;28;20068;-62
2023/04/12 01:41:50;;;;;;;0.20;0.20;;;;;;;11.66;94.21;99929.00;5074073;28;20047;-63
2023/04/12 01:44:18;;;;;;;0.20;0.20;;;;;;;11.60;94.93;99936.06;5073393;28;20140;-63
2023/04/12 01:46:47;;;;;;;0.20;0.20;;;;;;;11.53;94.81;99932.00;5074325;28;20081;-63
2023/04/12 01:49:14;;;;;;;0.20;0.20;;;;;;;11.47;95.18;99932.72;5072772;28;20115;-63
2023/04/12 01:52:12;;;;;;;0.20;0.20;;;;;;;11.43;95.04;99932.66;5072973;28;20024;-63
2023/04/12 01:54:43;;;;;;;0.20;0.20;;;;;;;11.42;95.59;99919.09;5072241;28;20025;-64
2023/04/12 01:57:10;;;;;;;0.20;0.20;;;;;;;11.38;95.53;99924.63;5072318;28;20052;-62
2023/04/12 01:59:39;;;;;;;0.20;0.20;;;;;;;11.42;95.09;99919.09;5072545;28;20094;-63
2023/04/12 02:02:06;;;;;;;0.20;0.20;;;;;;;11.32;95.22;99920.53;5073225;28;20410;-63
2023/04/12 02:04:36;;;;;;;0.20;0.20;;;;;;;11.21;95.65;99909.25;5072955;28;20024;-63
2023/04/12 02:07:04;;;;;;;0.20;0.20;;;;;;;11.16;95.93;99903.19;5073175;28;20024;-63
2023/04/12 02:09:34;;;;;;;0.20;0.20;;;;;;;11.19;96.49;99899.66;5073859;28;20032;-64
2023/04/12 02:12:03;;;;;;;0.20;0.20;;;;;;;11.12;95.22;99900.34;5073043;28;20036;-63
2023/04/12 02:14:31;;;;;;;0.20;0.20;;;;;;;11.02;95.59;99901.78;5072977;28;20032;-62
2023/04/12 02:17:03;;;;;;;0.20;0.20;;;;;;;11.10;95.23;99890.75;5072447;28;20032;-63
2023/04/12 02:19:31;;;;;;;0.20;0.20;;;;;;;10.88;94.29;99895.97;5074443;28;20103;-63
2023/04/12 02:22:03;;;;;;;0.20;0.20;;;;;;;10.77;95.59;99899.75;5072697;28;20064;-62
2023/04/12 02:24:28;;;;;;;0.20;0.20;;;;;;;10.76;96.91;99887.81;5072347;28;20086;-61
2023/04/12 02:26:56;;;;;;;0.20;0.20;;;;;;;10.76;96.74;99896.16;5072358;28;20024;-62
2023/04/12 02:29:22;;;;;;;0.20;0.20;;;;;;;10.69;97.36;99905.16;5072356;28;20024;-63
2023/04/12 02:31:51;;;;;;;0.20;0.20;;;;;;;10.68;97.31;99902.78;5072857;28;20051;-62
2023/04/12 02:34:20;;;;;;;0.20;0.20;;;;;;;10.62;98.05;99909.81;5072857;28;20025;-62
2023/04/12 02:36:46;;;;;;;0.20;0.20;;;;;;;10.62;98.59;99893.94;5072264;28;20210;-62
2023/04/12 02:39:21;;;;;;;0.20;0.20;;;;;;;10.56;98.46;99886.25;5072763;28;20075;-63
2023/04/12 02:41:46;;;;;;;0.20;0.20;;;;;;;10.52;99.63;99888.97;5072464;28;20025;-63
2023/04/12 02:44:17;;;;;;;0.20;0.20;;;;;;;10.33;98.13;99845.31;5072158;28;20395;-63
2023/04/12 02:46:44;;;;;;;0.20;0.20;;;;;;;10.49;98.48;99879.41;5072450;28;20032;-63
2023/04/12 02:49:12;;;;;;;0.20;0.20;;;;;;;10.44;99.71;99893.63;5075221;28;20383;-63
2023/04/12 02:51:43;;;;;;;0.20;0.20;;;;;;;10.62;98.61;99893.13;5076082;28;20025;-64
2023/04/12 02:54:08;;;;;;;0.20;0.20;;;;;;;10.56;98.19;99872.34;5076015;28;20032;-63
2023/04/12 02:56:37;;;;;;;0.20;0.20;;;;;;;10.56;98.90;99867.59;5075927;28;20028;-62
2023/04/12 02:59:02;;;;;;;0.20;0.20;;;;;;;10.52;98.13;99871.47;5075455;28;20049;-62
2023/04/12 03:01:35;;;;;;;0.20;0.20;;;;;;;10.66;97.42;99871.75;5075887;28;20387;-62
2023/04/12 03:04:03;;;;;;;0.20;0.20;;;;;;;10.57;98.40;99869.19;5077149;28;20033;-67
2023/04/12 03:06:29;;;;;;;0.20;0.20;;;;;;;10.39;98.11;99862.53;5076091;28;20467;-63
2023/04/12 03:08:57;;;;;;;0.20;0.20;;;;;;;10.58;98.57;99859.66;5075745;28;20070;-64
2023/04/12 03:11:22;;;;;;;0.20;0.20;;;;;;;10.56;97.52;99862.03;5076385;28;20056;-67
2023/04/12 03:13:53;;;;;;;0.20;0.20;;;;;;;10.42;97.57;99861.75;5076872;28;20036;-63
2023/04/12 03:16:26;;;;;;;0.20;0.20;;;;;;;10.37;98.20;99860.09;5076021;28;20542;-62
2023/04/12 03:18:55;;;;;;;;;;;;;;;10.36;99.54;99858.47;5076231;28;20500;-63
2023/04/12 03:21:23;;;;;;;0.20;0.20;;;;;;;10.37;98.89;99848.97;5075729;28;19958;-62
2023/04/12 03:23:52;;;;;;;0.20;0.20;;;;;;;10.35;99.04;99851.31;5075740;28;20116;-63
2023/04/12 03:26:20;;;;;;;0.20;0.20;;;;;;;10.35;98.44;99854.09;5075421;28;20081;-62
2023/04/12 03:28:46;;;;;;;0.20;0.20;;;;;;;10.27;98.37;99848.75;5075363;28;20075;-63
2023/04/12 03:31:12;;;;;;;0.20;0.20;;;;;;;10.26;97.31;99856.31;5075347;28;20028;-62
2023/04/12 03:33:40;;;;;;;0.20;0.20;;;;;;;10.19;96.97;99847.81;5075258;28;20036;-63
2023/04/12 03:36:06;;;;;;;0.20;0.20;;;;;;;10.23;96.83;99845.91;5075375;28;20028;-62
2023/04/12 03:38:37;;;;;;;0.20;0.20;;;;;;;10.19;96.03;99853.38;5075829;28;20028;-68
2023/04/12 03:41:02;;;;;;;0.20;0.20;;;;;;;10.23;96.29;99848.69;5076562;28;20036;-66
2023/04/12 03:43:34;;;;;;;0.20;0.20;;;;;;;10.29;95.78;99847.25;5075924;28;20460;-62
2023/04/12 03:46:07;;;;;;;0.20;0.20;;;;;;;10.28;95.59;99851.19;5075558;28;20132;-62
2023/04/12 03:48:32;;;;;;;0.20;0.20;;;;;;;10.28;94.80;99848.41;5075026;28;20032;-63
2023/04/12 03:51:06;;;;;;;0.20;0.20;;;;;;;10.36;93.66;99841.00;5075223;28;20025;-62
2023/04/12 03:53:31;;;;;;;;;;;;;;;10.38;93.53;99845.00;5075368;28;20025;-63
2023/04/12 03:55:59;;;;;;;0.20;0.20;;;;;;;10.35;93.15;99837.41;5075190;28;19908;-62
2023/04/12 03:58:25;;;;;;;0.20;0.20;;;;;;;10.30;93.47;99843.28;5074766;28;20071;-63
2023/04/12 04:00:56;;;;;;;0.20;0.20;;;;;;;10.31;92.42;99830.19;5073725;28;20467;-62
2023/04/12 04:03:25;;;;;;;0.20;0.20;;;;;;;10.32;92.25;99834.56;5074737;28;20028;-62
2023/04/12 04:05:54;;;;;;;0.20;0.20;;;;;;;10.38;92.36;99839.44;5075971;28;20021;-62
2023/04/12 04:08:22;;;;;;;0.20;0.20;;;;;;;10.40;92.15;99836.31;5075274;28;20097;-63
2023/04/12 04:10:50;;;;;;;0.20;0.20;;;;;;;10.18;92.50;99829.53;5074647;28;20481;-62
2023/04/12 04:13:16;;;;;;;0.20;0.20;;;;;;;10.32;93.16;99837.34;5074896;28;20036;-62
2023/04/12 04:15:41;;;;;;;0.20;0.20;;;;;;;10.23;92.51;99834.78;5074881;28;20047;-63
2023/04/12 04:18:09;;;;;;;0.20;0.20;;;;;;;10.19;92.91;99836.69;5074769;28;20387;-62
2023/04/12 04:20:34;;;;;;;0.20;0.20;;;;;;;10.13;94.10;99847.31;5074309;28;20034;-64
2023/04/12 04:23:03;;;;;;;0.20;0.20;;;;;;;10.11;94.24;99840.50;5074418;28;20032;-62
2023/04/12 04:25:32;;;;;;;0.20;0.20;;;;;;;10.15;95.07;99841.38;5074338;28;20021;-62
2023/04/12 04:28:01;;;;;;;0.20;0.20;;;;;;;10.09;93.61;99843.66;5074298;28;20028;-62
2023/04/12 04:30:32;;;;;;;0.20;0.20;;;;;;;10.12;93.54;99845.69;5074251;28;20024;-63
2023/04/12 04:33:03;;;;;;;0.20;0.20;;;;;;;10.16;94.04;99848.53;5074746;28;20024;-63
2023/04/12 04:35:34;;;;;;;0.20;0.20;;;;;;;10.08;94.54;99849.59;5074104;28;20024;-62
2023/04/12 04:38:02;;;;;;;0.20;0.20;;;;;;;10.21;94.03;99862.13;5074597;28;20032;-63
2023/04/12 04:40:27;;;;;;;0.20;0.20;;;;;;;10.19;93.29;99858.94;5074281;28;20441;-61
2023/04/12 04:42:56;;;;;;;0.20;0.20;;;;;;;10.17;94.48;99844.56;5073997;28;20123;-62
2023/04/12 04:45:26;;;;;;;0.20;0.20;;;;;;;10.29;94.12;99850.03;5074191;28;20103;-63
2023/04/12 04:47:54;;;;;;;0.20;0.20;;;;;;;10.28;92.89;99853.97;5074159;28;20037;-62
2023/04/12 04:50:22;;;;;;;0.20;0.20;;;;;;;10.27;93.90;99860.69;5074118;28;20056;-62
2023/04/12 04:52:51;;;;;;;0.20;0.20;;;;;;;10.64;92.57;99852.63;5074370;28;20447;-63
2023/04/12 04:55:17;;;;;;;0.20;0.20;;;;;;;11.36;91.06;99853.75;5074065;28;20475;-62
2023/04/12 04:57:48;;;;;;;0.20;0.20;;;;;;;11.97;86.76;99845.03;5073773;28;20074;-63
2023/04/12 05:00:17;;;;;;;0.20;0.20;;;;;;;12.47;80.92;99848.38;5074653;28;20387;-63
2023/04/12 05:02:45;;;;;;;0.20;0.20;;;;;;;12.96;78.71;99849.19;5073586;28;20035;-63
2023/04/12 05:05:16;;;;;;;0.20;0.20;;;;;;;13.53;75.94;99844.81;5073572;28;20021;-64
2023/04/12 05:07:45;;;;;;;0.20;0.20;;;;;;;13.87;70.37;99844.56;5073483;28;20029;-63
2023/04/12 05:10:10;;;;;;;0.20;0.20;;;;;;;13.98;69.22;99828.63;5073503;28;20058;-64
2023/04/12 05:12:41;;;;;;;0.20;0.20;;;;;;;14.28;70.12;99842.31;5073662;28;20040;-63
2023/04/12 05:15:12;;;;;;;0.20;0.20;;;;;;;14.57;67.31;99840.38;5074328;28;20029;-64
2023/04/12 05:17:42;;;;;;;0.20;0.20;;;;;;;15.54;67.00;99831.88;5074039;28;20112;-63
2023/04/12 05:20:10;;;;;;;0.20;0.20;;;;;;;16.29;61.86;99837.19;5073186;28;20028;-63
2023/04/12 05:22:41;;;;;;;0.20;0.20;;;;;;;16.73;57.83;99830.94;5073652;28;20059;-64
2023/04/12 05:25:07;;;;;;;0.20;0.20;;;;;;;16.38;56.36;99843.16;5072947;28;20031;-63
2023/04/12 05:27:32;;;;;;;0.20;0.20;;;;;;;15.58;61.95;99849.50;5073536;28;20036;-64
2023/04/12 05:30:01;;;;;;;0.20;0.20;;;;;;;15.08;63.56;99850.41;5073103;28;20360;-64
2023/04/12 05:32:27;;;;;;;0.20;0.20;;;;;;;15.09;64.60;99852.00;5073215;28;20028;-62
2023/04/12 05:34:55;;;;;;;0.20;0.20;;;;;;;15.84;62.68;99859.47;5073206;28;20036;-62
2023/04/12 05:37:21;;;;;;;0.20;0.20;;;;;;;16.37;61.27;99859.22;5073386;28;20125;-62
2023/04/12 05:39:51;;;;;;;0.20;0.20;;;;;;;17.20;58.07;99857.41;5072637;28;20494;-64
2023/04/12 05:42:17;;;;;;;0.20;0.20;;;;;;;17.62;55.28;99852.56;5072901;28;20391;-65
2023/04/12 05:44:47;;;;;;;0.20;0.20;;;;;;;16.51;58.71;99847.06;5072897;28;20024;-63
2023/04/12 05:47:15;;;;;;;0.20;0.20;;;;;;;16.09;60.26;99857.38;5072650;28;20479;-63
2023/04/12 05:49:43;;;;;;;0.20;0.20;;;;;;;15.62;63.29;99831.47;5073332;28;20341;-63
2023/04/12 05:52:17;;;;;;;0.20;0.20;;;;;;;15.75;61.94;99867.50;5073001;28;20024;-63
2023/04/12 05:54:45;;;;;;;0.20;0.20;;;;;;;15.41;64.31;99853.97;5072563;28;20025;-62
2023/04/12 05:57:16;;;;;;;0.20;0.20;;;;;;;15.86;62.40;99859.84;5072773;28;20052;-62
2023/04/12 05:59:41;;;;;;;0.20;0.20;;;;;;;16.73;61.92;99859.81;5072978;28;20035;-64
2023/04/12 06:02:09;;;;;;;0.20;0.20;;;;;;;16.86;59.32;99867.75;5072831;28;20404;-62
2023/04/12 06:04:34;;;;;;;0.20;0.20;;;;;;;17.29;58.67;99868.97;5072547;28;20086;-63
2023/04/12 06:07:00;;;;;;;0.20;0.20;;;;;;;17.13;58.37;99863.09;5072465;28;20541;-62
2023/04/12 06:09:26;;;;;;;0.20;0.20;;;;;;;17.42;57.27;99862.84;5072508;28;20055;-64
2023/04/12 06:11:53;;;;;;;0.20;0.20;;;;;;;17.23;56.86;99859.38;5072105;28;20115;-63
2023/04/12 06:14:24;;;;;;;0.20;0.20;;;;;;;17.46;54.61;99866.41;5072324;28;20035;-62
2023/04/12 06:16:54;;;;;;;0.20;0.20;;;;;;;17.33;56.93;99862.53;5071717;28;20104;-62
2023/04/12 06:19:22;;;;;;;0.20;0.20;;;;;;;17.13;57.91;99871.53;5072290;28;20033;-62
2023/04/12 06:21:50;;;;;;;0.20;0.20;;;;;;;17.86;57.11;99876.06;5071986;28;20029;-61
2023/04/12 06:24:21;;;;;;;0.20;0.20;;;;;;;18.91;52.80;99879.03;5071678;28;20090;-62
2023/04/12 06:26:47;;;;;;;0.20;0.20;;;;;;;19.83;50.91;99890.75;5072392;28;20410;-63
2023/04/12 06:29:12;;;;;;;0.20;0.20;;;;;;;20.16;49.52;99888.88;5071885;28;20028;-65
2023/04/12 06:31:40;;;;;;;0.20;0.20;;;;;;;20.65;47.79;99883.38;5071936;28;20024;-63
2023/04/12 06:34:08;;;;;;;0.20;0.20;;;;;;;21.01;46.78;99879.72;5072182;28;20032;-64
2023/04/12 06:36:38;;;;;;;0.20;0.20;;;;;;;20.75;45.74;99881.56;5071845;28;20031;-63
2023/04/12 06:39:07;;;;;;;0.20;0.20;;;;;;;21.62;44.29;99861.97;5071655;28;20055;-65
2023/04/12 06:41:35;;;;;;;0.20;0.20;;;;;;;20.56;45.39;99877.53;5071847;28;20028;-63
2023/04/12 06:44:03;;;;;;;0.20;0.20;;;;;;;21.24;45.60;99870.25;5071748;28;20024;-64
2023/04/12 06:46:30;;;;;;;0.20;0.20;;;;;;;20.49;45.82;99877.72;5071723;28;20032;-64
2023/04/12 06:48:57;;;;;;;0.20;0.20;;;;;;;19.85;46.73;99874.97;5071870;28;20122;-63
2023/04/12 06:51:29;;;;;;;0.20;0.20;;;;;;;20.10;46.62;99879.31;5072002;28;20107;-63
2023/04/12 06:53:59;;;;;;;0.20;0.20;;;;;;;19.52;48.89;99873.19;5071744;28;20035;-63
2023/04/12 06:56:28;;;;;;;0.20;0.20;;;;;;;19.21;48.72;99880.97;5072366;28;20039;-63
2023/04/12 06:58:56;;;;;;;0.20;0.20;;;;;;;18.68;51.94;99889.06;5071628;28;20403;-62
2023/04/12 07:01:21;;;;;;;0.20;0.20;;;;;;;18.47;51.68;99890.13;5071589;28;20025;-63
2023/04/12 07:03:47;;;;;;;0.20;0.20;;;;;;;18.53;52.60;99884.81;5072499;28;20033;-62
2023/04/12 07:06:12;;;;;;;0.20;0.20;;;;;;;18.82;51.76;99888.84;5071989;28;20020;-61
2023/04/12 07:08:41;;;;;;;0.20;0.20;;;;;;;19.21;51.71;99887.41;5071859;28;20071;-62
2023/04/12 07:11:11;;;;;;;0.20;0.20;;;;;;;19.05;51.16;99884.47;5072313;28;20029;-62
2023/04/12 07:13:36;;;;;;;0.20;0.20;;;;;;;19.24;49.50;99880.94;5071690;28;20040;-63
2023/04/12 07:16:07;;;;;;;0.20;0.20;;;;;;;19.59;49.29;99878.72;5054891;28;20025;-65
2023/04/12 07:18:35;;;;;;;0.20;0.20;;;;;;;19.95;48.34;99863.91;5072256;28;20033;-63
2023/04/12 07:21:01;;;;;;;0.20;0.20;;;;;;;19.36;49.79;99866.19;5072011;28;20463;-63
2023/04/12 07:23:30;;;;;;;0.20;0.20;;;;;;;18.37;51.22;99876.19;5071012;28;20073;-64
2023/04/12 07:25:59;;;;;;;0.20;0.20;;;;;;;19.03;50.90;99865.16;5071840;28;20468;-63
2023/04/12 07:28:27;;;;;;;0.20;0.20;;;;;;;19.19;49.18;99833.47;5071550;28;20039;-64
2023/04/12 07:30:55;;;;;;;0.20;0.20;;;;;;;18.51;52.11;99851.44;5072172;28;20032;-62
2023/04/12 07:33:25;;;;;;;0.20;0.20;;;;;;;19.30;50.10;99856.63;5071980;28;20121;-62
2023/04/12 07:35:50;;;;;;;0.20;0.20;;;;;;;19.02;48.33;99862.78;5073560;28;20119;-64
2023/04/12 07:38:16;;;;;;;0.20;0.20;;;;;;;19.67;47.67;99856.81;5075333;28;20076;-62
2023/04/12 07:40:41;;;;;;;0.20;0.20;;;;;;;19.63;46.51;99859.69;5074984;28;20384;-63
2023/04/12 07:43:07;;;;;;;0.20;0.20;;;;;;;19.71;47.11;99858.34;5075594;28;20025;-63
2023/04/12 07:45:36;;;;;;;0.20;0.20;;;;;;;19.36;47.76;99857.72;5075478;28;20028;-62
2023/04/12 07:48:04;;;;;;;0.20;0.20;;;;;;;20.05;46.12;99854.41;5074751;28;20028;-63
2023/04/12 07:50:34;;;;;;;0.20;0.20;;;;;;;20.09;44.78;99844.66;5074819;28;20028;-64
2023/04/12 07:53:24;;;;;;;0.20;0.20;;;;;;;19.12;47.28;99844.84;5074745;28;20036;-63
2023/04/12 07:55:50;;;;;;;0.20;0.20;;;;;;;19.00;47.21;99851.13;5076625;28;20470;-64
2023/04/12 07:58:20;;;;;;;0.20;0.20;;;;;;;18.95;46.28;99818.56;5074393;28;20135;-62
2023/04/12 08:00:48;;;;;;;0.20;0.20;;;;;;;19.03;47.16;99836.97;5074489;28;20028;-64
2023/04/12 08:03:15;;;;;;;0.20;0.20;;;;;;;19.32;46.17;99842.88;5074716;28;20033;-63
2023/04/12 08:05:41;;;;;;;0.20;0.20;;;;;;;19.85;45.85;99835.44;5074995;28;20513;-65
2023/04/12 08:08:13;;;;;;;0.20;0.20;;;;;;;19.68;45.96;99830.97;5074552;28;20070;-63
2023/04/12 08:10:41;;;;;;;0.20;0.20;;;;;;;19.97;45.13;99836.81;5075214;28;20451;-64
2023/04/12 08:13:11;;;;;;;0.20;0.20;;;;;;;19.89;44.69;99841.81;5074369;28;20085;-63
2023/04/12 08:15:37;;;;;;;0.20;0.20;;;;;;;20.60;44.09;99835.84;5074326;28;20056;-64
2023/04/12 08:18:05;;;;;;;0.20;0.20;;;;;;;19.65;45.85;99834.63;5074562;28;20040;-64
2023/04/12 08:20:31;;;;;;;0.20;0.20;;;;;;;19.41;46.77;99833.88;5074147;28;20033;-64
2023/04/12 08:22:57;;;;;;;0.20;0.20;;;;;;;20.11;45.27;99830.06;5074497;28;20035;-64
2023/04/12 08:25:25;;;;;;;0.20;0.20;;;;;;;19.66;45.50;99841.13;5073847;28;20551;-64
2023/04/12 08:27:53;;;;;;;0.20;0.20;;;;;;;19.21;46.43;99833.03;5074517;28;20075;-63
2023/04/12 08:30:25;;;;;;;0.20;0.20;;;;;;;20.01;45.99;99836.75;5074201;28;20479;-63
2023/04/12 08:32:56;;;;;;;0.20;0.20;;;;;;;19.81;44.19;99837.53;5074305;28;20475;-64
2023/04/12 08:35:24;;;;;;;0.20;0.20;;;;;;;20.01;43.94;99836.75;5073985;28;20063;-63
2023/04/12 08:37:53;;;;;;;0.20;0.20;;;;;;;19.79;45.23;99822.28;5073730;28;20036;-63
2023/04/12 08:40:21;;;;;;;0.20;0.20;;;;;;;19.87;43.42;99820.91;5073855;28;20471;-62
2023/04/12 08:42:55;;;;;;;0.20;0.20;;;;;;;19.82;44.11;99824.25;5073767;28;20043;-63
2023/04/12 08:45:24;;;;;;;0.20;0.20;;;;;;;20.47;42.98;99824.47;5073235;28;20040;-63
2023/04/12 08:47:52;;;;;;;0.20;0.20;;;;;;;21.14;40.99;99826.84;5073500;28;20464;-63
2023/04/12 08:50:19;;;;;;;0.20;0.20;;;;;;;21.36;41.50;99827.94;5073803;28;20028;-63
2023/04/12 08:52:51;;;;;;;0.20;0.20;;;;;;;22.56;39.40;99832.53;5073733;28;20467;-63
2023/04/12 08:55:16;;;;;;;0.20;0.20;;;;;;;23.26;36.83;99834.28;5074515;28;20024;-63
2023/04/12 08:57:46;;;;;;;0.20;0.20;;;;;;;23.44;36.79;99845.03;5073196;28;20048;-63
2023/04/12 09:00:14;;;;;;;0.10;0.10;;;;;;;23.34;36.66;99847.00;5073274;28;20020;-63
2023/04/12 09:02:45;;;;;;;0.10;0.10;;;;;;;23.16;37.73;99846.81;5075001;28;20054;-63
2023/04/12 09:05:12;;;;;;;0.10;0.10;;;;;;;23.10;36.54;99840.13;5073529;28;20035;-63
2023/04/12 09:07:37;;;;;;;0.20;0.20;;;;;;;24.71;34.66;99832.16;5073608;28;20387;-65
2023/04/12 09:10:03;;;;;;;0.10;0.10;;;;;;;23.81;35.79;99839.66;5073153;28;20024;-64
2023/04/12 09:12:32;;;;;;;0.20;0.20;;;;;;;23.36;35.83;99843.69;5073482;28;20371;-62
2023/04/12 09:15:12;;;;;;;0.20;0.20;;;;;;;24.03;35.96;99841.28;5073059;28;20029;-65
2023/04/12 09:17:39;;;;;;;0.10;0.10;;;;;;;23.90;35.74;99834.84;5074430;28;20048;-64
2023/04/12 09:20:11;;;;;;;0.20;0.20;;;;;;;23.55;36.29;99844.66;5072967;28;20024;-62
2023/04/12 09:22:43;;;;;;;0.10;0.10;;;;;;;24.16;35.25;99837.56;5072927;28;20128;-63
2023/04/12 09:25:08;;;;;;;0.20;0.20;;;;;;;23.38;37.04;99829.81;5072907;28;20028;-64
2023/04/12 09:27:51;;;;;;;0.10;0.10;;;;;;;24.12;35.13;99839.72;5073079;28;20032;-64
2023/04/12 09:30:18;;;;;;;0.10;0.10;;;;;;;25.12;34.15;99835.78;5073270;28;20032;-63
2023/04/12 09:32:48;;;;;;;0.20;0.20;;;;;;;24.16;35.09;99837.56;5073038;28;20122;-63
2023/04/12 09:35:18;;;;;;;0.10;0.10;;;;;;;23.98;36.15;99841.88;5073263;28;20147;-64
2023/04/12 09:37:43;;;;;;;0.10;0.10;;;;;;;22.97;38.08;99846.63;5073982;28;20468;-63
2023/04/12 09:40:13;;;;;;;0.10;0.10;;;;;;;23.41;37.28;99828.91;5072465;28;20021;-63
2023/04/12 09:42:52;;;;;;;0.10;0.10;;;;;;;23.41;38.22;99841.06;5072515;28;20051;-64
2023/04/12 09:45:21;;;;;;;0.10;0.10;;;;;;;24.03;37.25;99821.38;5073100;28;20024;-63
2023/04/12 09:47:49;;;;;;;0.10;0.10;;;;;;;24.39;36.95;99822.06;5074351;28;20060;-63
2023/04/12 09:50:26;;;;;;;0.20;0.20;;;;;;;24.64;36.57;99821.06;5072638;28;20028;-63
2023/04/12 09:52:55;;;;;;;0.20;0.20;;;;;;;24.13;36.88;99827.09;5074310;28;20060;-64
2023/04/12 09:55:22;;;;;;;0.10;0.10;;;;;;;23.99;37.44;99829.25;5072950;28;20405;-64
2023/04/12 09:57:52;;;;;;;0.20;0.20;;;;;;;22.76;39.55;99835.94;5071353;28;20080;-63
2023/04/12 10:00:22;;;;;;;0.10;0.10;;;;;;;22.30;40.94;99821.19;5072334;28;20147;-64
2023/04/12 10:02:51;;;;;;;0.20;0.20;;;;;;;22.51;40.49;99824.59;5073383;28;20033;-63
2023/04/12 10:05:20;;;;;;;0.10;0.10;;;;;;;22.32;40.46;99813.03;5072833;28;20379;-64
2023/04/12 10:07:46;;;;;;;0.10;0.10;;;;;;;21.81;41.43;99801.59;5072285;28;20078;-64
2023/04/12 10:10:14;;;;;;;0.10;0.10;;;;;;;22.34;40.59;99799.22;5072652;28;20056;-63
2023/04/12 10:12:41;;;;;;;0.10;0.10;;;;;;;23.14;39.65;99806.75;5072253;28;20060;-64
2023/04/12 10:15:12;;;;;;;0.10;0.10;;;;;;;24.15;38.07;99799.03;5073525;28;20566;-64
2023/04/12 10:17:56;;;;;;;0.10;0.10;;;;;;;22.52;40.48;99803.50;5072444;28;20024;-62
2023/04/12 10:20:22;;;;;;;0.10;0.10;;;;;;;22.84;40.32;99800.41;5072772;28;20044;-64
2023/04/12 10:22:52;;;;;;;0.20;0.20;;;;;;;22.83;40.23;99796.00;5072379;28;20456;-63
2023/04/12 10:25:24;;;;;;;0.10;0.10;;;;;;;23.08;39.41;99800.88;5072601;28;20364;-63
2023/04/12 10:27:55;;;;;;;0.10;0.10;;;;;;;23.35;39.83;99791.81;5073624;28;20040;-65
2023/04/12 10:30:27;;;;;;;0.20;0.20;;;;;;;22.30;41.13;99792.06;5072085;28;20021;-63
2023/04/12 10:33:02;;;;;;;0.10;0.10;;;;;;;22.35;41.50;99783.78;5072305;28;20028;-64
2023/04/12 10:35:47;;;;;;;0.10;0.10;;;;;;;21.86;42.55;99784.03;5072013;28;20021;-62
2023/04/12 10:38:14;;;;;;;0.10;0.10;;;;;;;22.26;41.50;99785.69;5072282;28;20028;-65
2023/04/12 10:41:13;;;;;;;0.20;0.20;;;;;;;21.94;42.68;99776.13;5072519;28;20036;-63
2023/04/12 10:43:50;;;;;;;0.10;0.10;;;;;;;21.65;43.45;99771.31;5072223;28;20075;-64
2023/04/12 10:46:36;;;;;;;0.20;0.20;;;;;;;21.75;42.37;99772.25;5072783;28;20024;-64
2023/04/12 10:49:14;;;;;;;0.20;0.20;;;;;;;21.47;42.81;99773.06;5072074;28;20352;-64
2023/04/12 10:52:01;;;;;;;0.10;0.10;;;;;;;22.16;41.81;99759.31;5072197;28;20416;-64
2023/04/12 10:54:27;;;;;;;0.20;0.20;;;;;;;22.11;41.30;99763.50;5058405;28;20073;-64
2023/04/12 10:56:52;;;;;;;0.20;0.20;;;;;;;22.09;41.90;99763.09;5073504;28;20024;-64
2023/04/12 10:59:20;;;;;;;0.20;0.20;;;;;;;21.71;42.05;99763.03;5095103;28;20016;-63
2023/04/12 11:02:07;;;;;;;0.13;0.13;;;;;;;21.53;43.07;99754.28;5095109;28;20093;-64
2023/04/12 11:04:36;;;;;;;0.10;0.10;;;;;;;21.27;43.43;99748.50;5095286;28;20122;-63
2023/04/12 11:07:10;;;;;;;0.20;0.20;;;;;;;21.28;43.78;99752.91;5095133;28;20031;-63
2023/04/12 11:09:40;;;;;;;0.20;0.20;;;;;;;20.75;44.39;99749.47;5097364;28;20034;-64
2023/04/12 11:12:05;;;;;;;0.20;0.20;;;;;;;21.54;43.35;99748.16;5099628;28;20118;-63
2023/04/12 11:14:46;;;;;;;0.20;0.20;;;;;;;21.49;43.63;99745.91;5099439;28;20086;-63
2023/04/12 11:17:12;;;;;;;0.20;0.20;;;;;;;21.55;43.04;99749.75;5098982;28;20058;-64
2023/04/12 11:19:42;;;;;;;0.20;0.20;;;;;;;21.21;44.30;99744.63;5098881;28;20058;-63
2023/04/12 11:22:19;;;;;;;0.20;0.20;;;;;;;20.96;44.54;99736.03;5099010;28;20039;-64
2023/04/12 11:24:48;;;;;;;0.20;0.20;;;;;;;21.23;44.64;99739.31;5099266;28;20031;-63
2023/04/12 11:27:18;;;;;;;0.10;0.10;;;;;;;21.31;43.72;99740.75;5098909;28;20028;-64
2023/04/12 11:29:50;;;;;;;0.20;0.20;;;;;;;21.55;43.43;99744.09;5099157;28;20015;-62
2023/04/12 11:32:19;;;;;;;0.20;0.20;;;;;;;21.33;44.25;99737.47;5099366;28;20023;-64
2023/04/12 11:34:48;;;;;;;0.20;0.20;;;;;;;21.67;43.72;99734.84;5099089;28;20027;-63
2023/04/12 11:37:14;;;;;;;0.20;0.20;;;;;;;21.33;44.68;99726.16;5117614;28;20024;-62
2023/04/12 11:39:44;;;;;;;0.20;0.20;;;;;;;20.97;44.76;99729.91;5098501;28;20429;-63
2023/04/12 11:42:22;;;;;;;0.17;0.17;;;;;;;20.36;45.44;99722.19;5098720;28;20126;-63
2023/04/12 11:44:49;;;;;;;0.20;0.20;;;;;;;20.36;46.92;99728.63;5116921;28;20034;-63